createdAt,value
2023-11-30T00:01:44.800Z,60.26
2023-11-30T00:04:13.297Z,60.05
2023-11-30T00:06:41.708Z,60.08
2023-11-30T00:09:10.009Z,60.14
2023-11-30T00:11:38.328Z,60.10
2023-11-30T00:14:06.560Z,60.30
2023-11-30T00:16:35.094Z,60.22
2023-11-30T00:19:03.668Z,60.87
2023-11-30T00:21:32.272Z,60.98
2023-11-30T00:24:00.645Z,60.75
2023-11-30T00:26:28.995Z,60.67
2023-11-30T00:28:57.571Z,60.62
2023-11-30T00:31:29.531Z,60.58
2023-11-30T00:33:58.076Z,60.66
2023-11-30T00:36:26.398Z,60.65
2023-11-30T00:38:54.665Z,60.74
2023-11-30T00:41:23.116Z,60.64
2023-11-30T00:43:51.413Z,60.76
2023-11-30T00:46:19.821Z,60.68
2023-11-30T00:48:48.401Z,60.94
2023-11-30T00:51:17.281Z,61.38
2023-11-30T00:53:45.509Z,61.53
2023-11-30T00:56:13.995Z,61.55
2023-11-30T00:58:42.230Z,61.65
2023-11-30T01:03:43.772Z,61.62
2023-11-30T01:06:12.259Z,61.78
2023-11-30T01:08:40.965Z,61.68
2023-11-30T01:11:09.759Z,61.90
2023-11-30T01:13:37.913Z,62.31
2023-11-30T01:16:06.727Z,62.11
2023-11-30T01:18:35.094Z,62.04
2023-11-30T01:21:03.843Z,62.30
2023-11-30T01:23:32.125Z,62.23
2023-11-30T01:26:01.398Z,62.25
2023-11-30T01:28:29.769Z,62.36
2023-11-30T01:30:58.171Z,62.80
2023-11-30T01:33:26.609Z,62.79
2023-11-30T01:35:54.888Z,62.89
2023-11-30T01:38:23.304Z,62.89
2023-11-30T01:40:51.491Z,62.63
2023-11-30T01:43:22.251Z,62.77
2023-11-30T01:46:02.331Z,62.47
2023-11-30T01:48:34.145Z,62.35
2023-11-30T01:51:06.051Z,62.40
2023-11-30T01:53:37.084Z,62.23
2023-11-30T01:56:10.561Z,62.00
2023-11-30T01:58:39.106Z,61.87
2023-11-30T02:01:09.055Z,61.88
2023-11-30T02:03:38.579Z,61.60
2023-11-30T02:06:07.876Z,61.66
2023-11-30T02:08:36.250Z,61.84
2023-11-30T02:11:04.709Z,61.69
2023-11-30T02:13:32.948Z,61.46
2023-11-30T02:16:01.475Z,61.16
2023-11-30T02:18:29.781Z,61.13
2023-11-30T02:20:58.305Z,60.90
2023-11-30T02:23:26.584Z,60.75
2023-11-30T02:25:55.066Z,60.54
2023-11-30T02:28:23.199Z,60.74
2023-11-30T02:30:51.598Z,60.90
2023-11-30T02:33:20.151Z,61.07
2023-11-30T02:35:48.459Z,61.05
2023-11-30T02:38:17.193Z,61.32
2023-11-30T02:40:45.482Z,61.45
2023-11-30T02:43:13.755Z,61.57
2023-11-30T02:45:42.077Z,61.73
2023-11-30T02:48:11.112Z,61.54
2023-11-30T02:50:39.993Z,61.72
2023-11-30T02:53:08.183Z,61.96
2023-11-30T02:55:36.745Z,61.84
2023-11-30T02:58:05.019Z,61.58
2023-11-30T03:00:33.365Z,61.55
2023-11-30T03:03:01.794Z,61.56
2023-11-30T03:05:32.278Z,61.65
2023-11-30T03:08:00.518Z,61.41
2023-11-30T03:10:28.856Z,61.52
2023-11-30T03:12:57.889Z,61.09
2023-11-30T03:15:26.167Z,61.16
2023-11-30T03:17:54.728Z,61.04
2023-11-30T03:20:23.243Z,60.93
2023-11-30T03:22:51.592Z,60.67
2023-11-30T03:25:20.127Z,60.50
2023-11-30T03:27:48.418Z,60.69
2023-11-30T03:30:16.822Z,60.50
2023-11-30T03:32:45.694Z,60.47
2023-11-30T03:35:13.995Z,60.45
2023-11-30T03:37:42.307Z,60.48
2023-11-30T03:40:11.673Z,60.49
2023-11-30T03:42:39.959Z,60.32
2023-11-30T03:45:08.916Z,60.35
2023-11-30T03:47:37.617Z,60.49
2023-11-30T03:50:06.156Z,60.43
2023-11-30T03:52:34.995Z,60.44
2023-11-30T03:55:03.560Z,60.10
2023-11-30T03:57:32.206Z,60.28
2023-11-30T04:00:00.683Z,60.10
2023-11-30T04:02:30.002Z,59.94
2023-11-30T04:04:59.538Z,59.94
2023-11-30T04:07:27.790Z,59.99
2023-11-30T04:09:56.201Z,59.85
2023-11-30T04:12:24.645Z,59.69
2023-11-30T04:14:53.013Z,59.84
2023-11-30T04:17:22.239Z,59.75
2023-11-30T04:19:50.821Z,59.97
2023-11-30T04:22:19.047Z,59.74
2023-11-30T04:24:47.776Z,59.84
2023-11-30T04:27:16.198Z,59.86
2023-11-30T04:29:44.501Z,59.77
2023-11-30T04:32:13.003Z,59.80
2023-11-30T04:34:41.237Z,59.84
2023-11-30T04:37:09.441Z,60.03
2023-11-30T04:39:38.035Z,59.88
2023-11-30T04:42:06.534Z,59.72
2023-11-30T04:44:34.731Z,59.85
2023-11-30T04:47:03.046Z,59.76
2023-11-30T04:49:31.272Z,59.61
2023-11-30T04:51:59.831Z,59.36
2023-11-30T04:54:28.439Z,59.25
2023-11-30T04:56:57.645Z,59.19
2023-11-30T04:59:25.873Z,59.17
2023-11-30T05:01:54.403Z,59.06
2023-11-30T05:04:23.563Z,58.77
2023-11-30T05:06:51.809Z,58.82
2023-11-30T05:09:20.068Z,58.96
2023-11-30T05:11:48.377Z,58.78
2023-11-30T05:14:16.551Z,58.66
2023-11-30T05:16:45.480Z,58.65
2023-11-30T05:19:13.666Z,58.39
2023-11-30T05:21:42.080Z,58.65
2023-11-30T05:24:11.979Z,58.53
2023-11-30T05:26:40.481Z,58.51
2023-11-30T05:29:08.815Z,58.43
2023-11-30T05:31:37.163Z,58.42
2023-11-30T05:34:05.444Z,58.55
2023-11-30T05:36:34.273Z,58.50
2023-11-30T05:39:03.149Z,58.89
2023-11-30T05:41:32.133Z,59.27
2023-11-30T05:44:00.596Z,59.59
2023-11-30T05:46:28.955Z,59.96
2023-11-30T05:48:57.252Z,60.36
2023-11-30T05:51:25.543Z,60.61
2023-11-30T05:53:54.208Z,60.88
2023-11-30T05:56:22.917Z,60.68
2023-11-30T05:58:51.075Z,60.92
2023-11-30T06:01:19.409Z,61.09
2023-11-30T06:03:47.940Z,61.03
2023-11-30T06:06:16.480Z,60.97
2023-11-30T06:08:44.726Z,60.91
2023-11-30T06:11:12.864Z,60.81
2023-11-30T06:13:41.197Z,61.18
2023-11-30T06:16:09.724Z,61.13
2023-11-30T06:18:38.326Z,61.43
2023-11-30T06:21:10.770Z,61.90
2023-11-30T06:23:39.199Z,61.95
2023-11-30T06:26:10.512Z,61.88
2023-11-30T06:28:38.852Z,62.29
2023-11-30T06:31:08.488Z,62.15
2023-11-30T06:33:36.876Z,62.17
2023-11-30T06:36:05.784Z,62.28
2023-11-30T06:38:34.304Z,62.22
2023-11-30T06:41:02.665Z,62.50
2023-11-30T06:43:31.011Z,62.23
2023-11-30T06:45:59.265Z,62.39
2023-11-30T06:48:27.681Z,62.39
2023-11-30T06:50:56.166Z,62.30
2023-11-30T06:53:24.667Z,62.25
2023-11-30T06:55:53.386Z,62.14
2023-11-30T06:58:21.567Z,62.11
2023-11-30T07:00:49.843Z,62.16
2023-11-30T07:03:18.409Z,62.09
2023-11-30T07:05:48.429Z,61.88
2023-11-30T07:08:16.834Z,61.99
2023-11-30T07:10:45.232Z,62.26
2023-11-30T07:13:13.629Z,61.87
2023-11-30T07:15:42.250Z,62.08
2023-11-30T07:18:11.736Z,61.93
2023-11-30T07:20:40.059Z,61.91
2023-11-30T07:23:09.480Z,61.83
2023-11-30T07:25:38.589Z,61.77
2023-11-30T07:28:06.659Z,61.74
2023-11-30T07:30:34.980Z,61.58
2023-11-30T07:33:03.448Z,61.28
2023-11-30T07:35:32.216Z,61.47
2023-11-30T07:38:00.530Z,61.48
2023-11-30T07:40:30.005Z,61.01
2023-11-30T07:42:58.578Z,58.88
2023-11-30T07:45:27.387Z,57.23
2023-11-30T07:47:56.132Z,55.77
2023-11-30T07:50:25.003Z,54.37
2023-11-30T07:52:53.361Z,52.84
2023-11-30T07:55:22.992Z,50.62
2023-11-30T07:57:51.319Z,49.01
2023-11-30T08:00:20.110Z,47.31
2023-11-30T08:02:48.544Z,45.48
2023-11-30T08:05:17.897Z,43.97
2023-11-30T08:07:46.194Z,42.62
2023-11-30T08:10:14.365Z,41.72
2023-11-30T08:12:43.502Z,40.58
2023-11-30T08:15:14.396Z,39.59
2023-11-30T08:17:42.810Z,38.51
2023-11-30T08:20:12.295Z,38.09
2023-11-30T08:22:41.792Z,37.60
2023-11-30T08:25:10.180Z,37.33
2023-11-30T08:27:39.293Z,36.70
2023-11-30T08:30:08.141Z,36.24
2023-11-30T08:32:37.516Z,35.64
2023-11-30T08:35:06.717Z,34.55
2023-11-30T08:37:35.059Z,34.03
2023-11-30T08:40:03.552Z,33.98
2023-11-30T08:42:31.944Z,32.80
2023-11-30T08:45:00.471Z,31.68
2023-11-30T08:47:28.684Z,30.53
2023-11-30T08:49:56.989Z,30.16
2023-11-30T08:52:25.462Z,30.21
2023-11-30T08:54:54.293Z,31.23
2023-11-30T08:57:22.740Z,31.59
2023-11-30T08:59:51.345Z,32.02
2023-11-30T09:02:19.713Z,31.71
2023-11-30T09:04:50.242Z,32.26
2023-11-30T09:07:19.684Z,32.28
2023-11-30T09:09:51.248Z,32.74
2023-11-30T09:12:20.144Z,33.01
2023-11-30T09:14:48.313Z,32.87
2023-11-30T09:17:16.731Z,32.37
2023-11-30T09:19:44.948Z,31.55
2023-11-30T09:22:13.299Z,30.93
2023-11-30T09:24:41.647Z,30.64
2023-11-30T09:27:10.278Z,30.36
2023-11-30T09:29:40.713Z,29.97
2023-11-30T09:32:08.998Z,29.60
2023-11-30T09:34:37.766Z,29.77
2023-11-30T09:37:06.832Z,29.75
2023-11-30T09:39:35.071Z,29.61
2023-11-30T09:42:03.774Z,29.71
2023-11-30T09:44:36.410Z,29.19
2023-11-30T09:47:05.019Z,29.26
2023-11-30T09:49:33.156Z,30.01
2023-11-30T09:52:02.738Z,30.20
2023-11-30T09:54:32.508Z,30.40
2023-11-30T09:57:00.931Z,30.26
2023-11-30T09:59:29.902Z,30.37
2023-11-30T10:02:04.523Z,30.03
2023-11-30T10:04:35.166Z,29.49
2023-11-30T10:07:03.687Z,29.14
2023-11-30T10:09:34.392Z,29.16
2023-11-30T10:12:02.944Z,29.46
2023-11-30T10:14:31.359Z,29.80
2023-11-30T10:17:01.181Z,29.59
2023-11-30T10:19:30.219Z,29.88
2023-11-30T10:21:59.812Z,29.83
2023-11-30T10:24:28.777Z,29.38
2023-11-30T10:27:05.795Z,28.92
2023-11-30T10:29:41.534Z,28.25
2023-11-30T10:32:14.776Z,27.97
2023-11-30T10:34:50.861Z,27.80
2023-11-30T10:37:21.119Z,27.46
2023-11-30T10:40:00.805Z,27.03
2023-11-30T10:42:29.799Z,27.06
2023-11-30T10:45:02.718Z,27.46
2023-11-30T10:47:31.517Z,27.70
2023-11-30T10:50:01.454Z,27.89
2023-11-30T10:52:30.730Z,28.38
2023-11-30T10:55:17.169Z,29.09
2023-11-30T10:57:46.492Z,29.39
2023-11-30T11:00:17.030Z,30.19
2023-11-30T11:02:47.279Z,30.69
2023-11-30T11:05:20.185Z,31.12
2023-11-30T11:07:53.279Z,31.84
2023-11-30T11:10:42.063Z,32.21
2023-11-30T11:13:19.086Z,32.70
2023-11-30T11:15:57.851Z,32.66
2023-11-30T11:18:34.414Z,32.82
2023-11-30T11:21:02.869Z,32.39
2023-11-30T11:23:35.383Z,32.42
2023-11-30T11:26:03.950Z,32.72
2023-11-30T11:28:32.898Z,33.07
2023-11-30T11:31:01.801Z,33.22
2023-11-30T11:33:30.946Z,33.15
2023-11-30T11:36:02.321Z,33.30
2023-11-30T11:38:30.928Z,33.31
2023-11-30T11:40:59.700Z,33.61
2023-11-30T11:43:28.317Z,33.58
2023-11-30T11:45:56.645Z,33.43
2023-11-30T11:48:24.959Z,33.74
2023-11-30T11:50:58.385Z,34.31
2023-11-30T11:53:26.573Z,34.62
2023-11-30T11:56:02.911Z,34.39
2023-11-30T11:58:31.381Z,34.87
2023-11-30T12:00:59.734Z,35.36
2023-11-30T12:03:30.141Z,35.72
2023-11-30T12:05:58.568Z,36.30
2023-11-30T12:08:31.955Z,36.98
2023-11-30T12:11:00.228Z,37.56
2023-11-30T12:13:28.849Z,38.36
2023-11-30T12:15:57.458Z,39.19
2023-11-30T12:18:28.693Z,39.66
2023-11-30T12:20:57.192Z,40.43
2023-11-30T12:23:25.438Z,41.44
2023-11-30T12:25:53.897Z,42.42
2023-11-30T12:28:23.136Z,43.37
2023-11-30T12:30:51.519Z,44.76
2023-11-30T12:33:20.103Z,46.43
2023-11-30T12:35:48.753Z,47.12
2023-11-30T12:38:17.161Z,48.46
2023-11-30T12:40:45.700Z,49.26
2023-11-30T12:43:14.343Z,49.75
2023-11-30T12:45:42.686Z,50.31
2023-11-30T12:48:11.092Z,51.15
2023-11-30T12:50:39.905Z,51.10
2023-11-30T12:53:08.437Z,51.62
2023-11-30T12:55:36.878Z,52.28
2023-11-30T12:58:09.540Z,52.71
2023-11-30T13:00:38.454Z,52.95
2023-11-30T13:03:07.167Z,52.84
2023-11-30T13:05:35.602Z,52.83
2023-11-30T13:08:03.956Z,53.43
2023-11-30T13:10:32.749Z,54.08
2023-11-30T13:13:01.576Z,54.24
2023-11-30T13:18:18.308Z,54.43
2023-11-30T13:20:47.276Z,54.36
2023-11-30T13:23:15.722Z,54.37
2023-11-30T13:25:44.327Z,54.06
2023-11-30T13:28:12.759Z,53.94
2023-11-30T13:30:41.232Z,53.96
2023-11-30T13:33:10.016Z,53.91
2023-11-30T13:35:38.433Z,53.05
2023-11-30T13:38:07.360Z,52.48
2023-11-30T13:40:36.253Z,51.93
2023-11-30T13:43:06.077Z,51.92
2023-11-30T13:45:36.617Z,51.85
2023-11-30T13:48:05.109Z,52.25
2023-11-30T13:50:41.977Z,52.49
2023-11-30T13:53:15.569Z,52.27
2023-11-30T13:55:44.360Z,52.39
2023-11-30T13:58:12.547Z,52.80
2023-11-30T14:00:41.165Z,52.86
2023-11-30T14:03:09.529Z,53.14
2023-11-30T14:05:37.760Z,53.39
2023-11-30T14:08:07.498Z,53.95
2023-11-30T14:10:35.758Z,54.45
2023-11-30T14:13:05.792Z,54.83
2023-11-30T14:15:34.382Z,55.45
2023-11-30T14:18:03.641Z,55.71
2023-11-30T14:20:31.972Z,56.38
2023-11-30T14:23:00.271Z,56.78
2023-11-30T14:25:28.736Z,56.57
2023-11-30T14:28:00.965Z,56.25
2023-11-30T14:30:32.044Z,56.24
2023-11-30T14:33:00.836Z,56.07
2023-11-30T14:35:30.643Z,55.92
2023-11-30T14:37:59.298Z,55.80
2023-11-30T14:40:28.088Z,55.95
2023-11-30T14:42:57.233Z,56.52
2023-11-30T14:45:26.476Z,56.86
2023-11-30T14:47:55.146Z,57.09
2023-11-30T14:50:23.875Z,57.10
2023-11-30T14:52:52.230Z,57.54
2023-11-30T14:55:22.701Z,57.86
2023-11-30T14:57:53.815Z,58.28
2023-11-30T15:00:24.212Z,58.46
2023-11-30T15:02:55.578Z,58.62
2023-11-30T15:05:23.960Z,58.70
2023-11-30T15:07:52.047Z,58.92
2023-11-30T15:10:20.462Z,58.74
2023-11-30T15:12:51.311Z,58.65
2023-11-30T15:15:19.930Z,58.58
2023-11-30T15:17:48.575Z,58.80
2023-11-30T15:20:18.293Z,59.08
2023-11-30T15:22:47.951Z,58.93
2023-11-30T15:25:16.225Z,58.81
2023-11-30T15:27:44.578Z,58.65
2023-11-30T15:30:14.480Z,58.57
2023-11-30T15:32:42.791Z,58.50
2023-11-30T15:35:11.570Z,58.44
2023-11-30T15:37:40.018Z,58.78
2023-11-30T15:40:09.906Z,58.98
2023-11-30T15:42:38.649Z,59.22
2023-11-30T15:45:11.544Z,59.28
2023-11-30T15:47:41.911Z,59.48
2023-11-30T15:50:10.686Z,59.59
2023-11-30T15:52:39.108Z,59.75
2023-11-30T15:55:07.907Z,59.79
2023-11-30T15:57:36.440Z,59.89
2023-11-30T16:00:06.236Z,59.98
2023-11-30T16:02:34.900Z,60.11
2023-11-30T16:05:04.074Z,60.28
2023-11-30T16:07:33.088Z,60.59
2023-11-30T16:10:03.877Z,60.84
2023-11-30T16:12:33.403Z,61.11
2023-11-30T16:15:04.657Z,61.31
2023-11-30T16:17:34.599Z,61.41
2023-11-30T16:20:04.360Z,61.57
2023-11-30T16:22:33.213Z,61.70
2023-11-30T16:25:01.855Z,61.87
2023-11-30T16:27:30.291Z,62.14
2023-11-30T16:29:59.583Z,62.18
2023-11-30T16:32:28.008Z,62.29
2023-11-30T16:34:56.282Z,62.52
2023-11-30T16:37:24.648Z,62.74
2023-11-30T16:39:52.952Z,63.05
2023-11-30T16:42:21.962Z,63.28
2023-11-30T16:44:51.303Z,63.66
2023-11-30T16:47:20.113Z,63.93
2023-11-30T16:49:48.429Z,63.99
2023-11-30T16:52:16.977Z,63.94
2023-11-30T16:54:45.231Z,64.23
2023-11-30T16:57:13.438Z,64.32
2023-11-30T16:59:42.198Z,64.38
2023-11-30T17:02:10.488Z,64.41
2023-11-30T17:04:39.144Z,64.50
2023-11-30T17:07:07.729Z,64.52
2023-11-30T17:09:35.989Z,64.59
2023-11-30T17:12:04.589Z,64.69
2023-11-30T17:14:33.010Z,64.65
2023-11-30T17:17:01.263Z,64.78
2023-11-30T17:19:29.532Z,64.72
2023-11-30T17:21:57.727Z,64.75
2023-11-30T17:24:26.060Z,64.78
2023-11-30T17:26:54.391Z,64.90
2023-11-30T17:29:22.783Z,64.98
2023-11-30T17:31:51.018Z,64.91
2023-11-30T17:34:19.754Z,64.98
2023-11-30T17:36:48.721Z,65.07
2023-11-30T17:39:17.371Z,65.00
2023-11-30T17:41:46.130Z,65.03
2023-11-30T17:44:15.065Z,65.19
2023-11-30T17:46:45.432Z,65.18
2023-11-30T17:49:13.557Z,65.19
2023-11-30T17:51:42.462Z,65.30
2023-11-30T17:54:10.784Z,65.35
2023-11-30T17:56:39.073Z,65.32
2023-11-30T17:59:07.395Z,65.25
2023-11-30T18:01:36.710Z,65.32
2023-11-30T18:04:05.117Z,65.33
2023-11-30T18:06:33.552Z,65.39
2023-11-30T18:09:02.411Z,65.47
2023-11-30T18:11:30.915Z,65.60
2023-11-30T18:13:59.422Z,65.65
2023-11-30T18:16:27.796Z,65.76
2023-11-30T18:18:56.714Z,65.78
2023-11-30T18:21:26.465Z,66.15
2023-11-30T18:23:56.925Z,66.25
2023-11-30T18:26:25.238Z,66.33
2023-11-30T18:28:53.724Z,66.30
2023-11-30T18:31:23.007Z,66.39
2023-11-30T18:33:51.832Z,66.49
2023-11-30T18:36:20.269Z,66.55
2023-11-30T18:38:51.393Z,66.54
2023-11-30T18:41:21.353Z,66.72
2023-11-30T18:43:50.793Z,66.74
2023-11-30T18:46:19.542Z,66.81
2023-11-30T18:48:47.924Z,66.81
2023-11-30T18:51:16.218Z,66.87
2023-11-30T18:53:44.471Z,66.85
2023-11-30T18:56:12.908Z,66.86
2023-11-30T18:58:41.735Z,66.89
2023-11-30T19:01:10.136Z,66.89
2023-11-30T19:03:38.713Z,66.96
2023-11-30T19:06:07.886Z,67.02
2023-11-30T19:08:36.232Z,67.10
2023-11-30T19:11:04.879Z,66.97
2023-11-30T19:13:33.917Z,66.99
2023-11-30T19:16:02.490Z,66.97
2023-11-30T19:18:31.358Z,67.02
2023-11-30T19:21:02.435Z,67.01
2023-11-30T19:23:30.948Z,67.02
2023-11-30T19:25:59.616Z,67.15
2023-11-30T19:28:27.954Z,67.19
2023-11-30T19:30:56.263Z,67.10
2023-11-30T19:33:24.794Z,67.18
2023-11-30T19:35:53.245Z,67.37
2023-11-30T19:38:21.622Z,67.37
2023-11-30T19:40:49.976Z,67.40
2023-11-30T19:43:18.773Z,67.37
2023-11-30T19:45:47.286Z,67.34
2023-11-30T19:48:15.760Z,67.40
2023-11-30T19:50:44.117Z,67.36
2023-11-30T19:53:12.339Z,67.29
2023-11-30T19:55:41.353Z,67.30
2023-11-30T19:58:09.905Z,67.33
2023-11-30T20:00:38.138Z,67.43
2023-11-30T20:03:06.555Z,67.46
2023-11-30T20:05:35.408Z,67.54
2023-11-30T20:08:03.699Z,67.49
2023-11-30T20:10:31.936Z,67.56
2023-11-30T20:13:00.303Z,67.49
2023-11-30T20:15:28.496Z,67.52
2023-11-30T20:17:56.941Z,67.53
2023-11-30T20:20:25.596Z,67.58
2023-11-30T20:22:53.861Z,67.55
2023-11-30T20:25:22.583Z,67.60
2023-11-30T20:27:51.575Z,67.53
2023-11-30T20:30:19.821Z,67.57
2023-11-30T20:32:49.331Z,67.75
2023-11-30T20:35:18.063Z,67.69
2023-11-30T20:37:46.480Z,67.67
2023-11-30T20:40:15.060Z,67.77
2023-11-30T20:42:43.222Z,67.76
2023-11-30T20:45:12.249Z,67.71
2023-11-30T20:47:42.021Z,67.75
2023-11-30T20:50:10.503Z,67.66
2023-11-30T20:52:39.176Z,67.79
2023-11-30T20:55:08.162Z,67.94
2023-11-30T20:57:36.450Z,68.06
2023-11-30T21:00:08.202Z,68.11
2023-11-30T21:02:37.200Z,68.15
2023-11-30T21:05:06.077Z,68.20
2023-11-30T21:07:34.395Z,68.17
2023-11-30T21:10:03.399Z,68.11
2023-11-30T21:12:31.744Z,68.20
2023-11-30T21:15:00.509Z,68.19
2023-11-30T21:17:28.680Z,68.21
2023-11-30T21:19:57.032Z,68.23
2023-11-30T21:22:28.682Z,68.20
2023-11-30T21:24:56.985Z,68.30
2023-11-30T21:27:25.888Z,68.53
2023-11-30T21:29:57.380Z,68.71
2023-11-30T21:32:25.883Z,68.77
2023-11-30T21:34:57.165Z,68.86
2023-11-30T21:37:26.000Z,68.82
2023-11-30T21:39:54.267Z,68.88
2023-11-30T21:42:22.715Z,68.86
2023-11-30T21:44:51.492Z,68.91
2023-11-30T21:47:19.678Z,68.95
2023-11-30T21:49:48.836Z,69.04
2023-11-30T21:52:17.399Z,69.29
2023-11-30T21:54:45.742Z,69.34
2023-11-30T21:57:14.444Z,69.38
2023-11-30T21:59:42.790Z,69.44
2023-11-30T22:02:11.242Z,69.40
2023-11-30T22:04:39.590Z,69.39
2023-11-30T22:07:08.102Z,69.40
2023-11-30T22:09:38.353Z,69.43
2023-11-30T22:12:08.009Z,69.44
2023-11-30T22:14:36.150Z,69.43
2023-11-30T22:17:04.723Z,69.47
2023-11-30T22:19:33.672Z,69.48
2023-11-30T22:22:01.925Z,69.47
2023-11-30T22:24:30.082Z,69.45
2023-11-30T22:26:58.691Z,69.52
2023-11-30T22:29:27.222Z,69.47
2023-11-30T22:31:56.283Z,69.48
2023-11-30T22:34:25.102Z,69.46
2023-11-30T22:36:53.789Z,69.39
2023-11-30T22:39:22.228Z,69.51
2023-11-30T22:41:50.939Z,69.46
2023-11-30T22:44:19.680Z,69.55
2023-11-30T22:46:48.398Z,69.53
2023-11-30T22:49:17.169Z,69.50
2023-11-30T22:51:45.742Z,69.56
2023-11-30T22:54:13.965Z,69.57
2023-11-30T22:56:42.422Z,69.62
2023-11-30T22:59:11.337Z,69.65
2023-11-30T23:01:39.767Z,69.68
2023-11-30T23:04:08.377Z,69.64
2023-11-30T23:06:36.846Z,69.53
2023-11-30T23:09:05.015Z,69.38
2023-11-30T23:11:33.424Z,69.23
2023-11-30T23:14:01.713Z,69.32
2023-11-30T23:16:29.936Z,69.18
2023-11-30T23:18:58.622Z,69.24
2023-11-30T23:21:26.882Z,69.08
2023-11-30T23:23:55.104Z,69.12
2023-11-30T23:26:23.714Z,69.18
2023-11-30T23:28:51.989Z,69.15
2023-11-30T23:31:21.474Z,69.14
2023-11-30T23:33:49.800Z,69.34
2023-11-30T23:36:18.229Z,69.40
2023-11-30T23:38:46.548Z,69.35
2023-11-30T23:41:15.051Z,69.33
2023-11-30T23:43:43.258Z,69.30
2023-11-30T23:46:11.702Z,69.31
2023-11-30T23:48:40.072Z,69.26
2023-11-30T23:51:08.623Z,69.19
2023-11-30T23:53:36.899Z,69.28
2023-11-30T23:56:05.696Z,69.26
2023-11-30T23:58:34.034Z,69.41
